Time;durP1;ratioP1;P1;durP2;ratioP2;P2;SDS_P1;SDS_P2;PMS_P1;PMS_P2;Temp;Humidity;BMP_temperature;BMP_pressure;BME280_temperature;BME280_humidity;BME280_pressure;Samples;Min_cycle;Max_cycle;Signal;HPM_P1;HPM_P2
2021/03/18 00:00:44;;;;;;;13.90;11.27;;;;;;;;;;5093660;28;20203;-62
2021/03/18 00:03:12;;;;;;;15.27;12.75;;;;;;;;;;5093297;28;20207;-63
2021/03/18 00:05:39;;;;;;;14.60;11.82;;;;;;;;;;5093425;28;20196;-62
2021/03/18 00:08:06;;;;;;;16.15;12.02;;;;;;;;;;5093562;28;20227;-62
2021/03/18 00:10:33;;;;;;;13.60;11.85;;;;;;;;;;5093487;28;20259;-63
2021/03/18 00:13:01;;;;;;;13.82;11.77;;;;;;;;;;5093488;28;20200;-63
2021/03/18 00:15:29;;;;;;;19.27;13.95;;;;;;;;;;5093552;28;20216;-62
2021/03/18 00:17:55;;;;;;;15.48;12.55;;;;;;;;;;5093570;28;20200;-62
2021/03/18 00:20:22;;;;;;;14.38;12.35;;;;;;;;;;5093581;28;20196;-62
2021/03/18 00:22:49;;;;;;;14.27;12.57;;;;;;;;;;5094354;28;20200;-62
2021/03/18 00:25:17;;;;;;;13.85;11.23;;;;;;;;;;5097730;28;20220;-63
2021/03/18 00:27:45;;;;;;;15.20;11.30;;;;;;;;;;5105632;28;20220;-63
2021/03/18 00:30:14;;;;;;;14.93;12.40;;;;;;;;;;5108941;28;20741;-63
2021/03/18 00:32:41;;;;;;;18.27;13.15;;;;;;;;;;5099163;28;20208;-63
2021/03/18 00:35:09;;;;;;;18.02;13.70;;;;;;;;;;5100020;28;20231;-63
2021/03/18 00:37:36;;;;;;;15.38;12.48;;;;;;;;;;5098695;28;20204;-62
2021/03/18 00:40:05;;;;;;;14.93;12.50;;;;;;;;;;5098632;28;20200;-63
2021/03/18 00:42:32;;;;;;;16.27;12.32;;;;;;;;;;5099788;28;20207;-61
2021/03/18 00:44:58;;;;;;;14.50;12.65;;;;;;;;;;5099160;28;20216;-61
2021/03/18 00:47:26;;;;;;;14.85;12.10;;;;;;;;;;5097050;28;20824;-63
2021/03/18 00:49:53;;;;;;;16.30;12.95;;;;;;;;;;5097363;28;20200;-63
2021/03/18 00:52:20;;;;;;;18.35;14.35;;;;;;;;;;5097239;28;20204;-62
2021/03/18 00:54:46;;;;;;;17.17;14.13;;;;;;;;;;5097429;28;20232;-63
2021/03/18 00:57:13;;;;;;;17.65;14.60;;;;;;;;;;5097137;28;20246;-62
2021/03/18 00:59:40;;;;;;;16.10;13.23;;;;;;;;;;5097036;28;20604;-62
2021/03/18 01:02:06;;;;;;;17.98;14.02;;;;;;;;;;5096687;28;20611;-62
2021/03/18 01:04:34;;;;;;;17.33;13.57;;;;;;;;;;5096754;28;20250;-62
2021/03/18 01:07:01;;;;;;;20.00;14.63;;;;;;;;;;5096553;28;20212;-62
2021/03/18 01:09:28;;;;;;;17.45;14.00;;;;;;;;;;5096927;28;20224;-62
2021/03/18 01:11:54;;;;;;;16.90;13.85;;;;;;;;;;5096830;28;20544;-62
2021/03/18 01:14:21;;;;;;;17.52;13.80;;;;;;;;;;5096800;28;20251;-63
2021/03/18 01:16:49;;;;;;;16.35;12.98;;;;;;;;;;5096436;28;20200;-62
2021/03/18 01:19:16;;;;;;;18.30;14.70;;;;;;;;;;5096525;28;20211;-62
2021/03/18 01:21:45;;;;;;;19.55;14.05;;;;;;;;;;5096631;28;20201;-62
2021/03/18 01:24:12;;;;;;;17.52;15.40;;;;;;;;;;5096488;28;20220;-63
2021/03/18 01:26:39;;;;;;;16.55;14.30;;;;;;;;;;5096602;28;20203;-63
2021/03/18 01:29:06;;;;;;;18.50;15.52;;;;;;;;;;5096140;28;20220;-63
2021/03/18 01:31:33;;;;;;;17.90;14.10;;;;;;;;;;5096338;28;20196;-62
2021/03/18 01:34:00;;;;;;;21.75;16.17;;;;;;;;;;5096054;28;20224;-63
2021/03/18 01:36:27;;;;;;;20.50;14.85;;;;;;;;;;5095931;28;20203;-62
2021/03/18 01:38:55;;;;;;;18.67;16.55;;;;;;;;;;5097731;28;20200;-62
2021/03/18 01:41:24;;;;;;;17.85;15.80;;;;;;;;;;5097227;28;20200;-62
2021/03/18 01:43:51;;;;;;;20.27;16.40;;;;;;;;;;5097000;28;20273;-62
2021/03/18 01:46:18;;;;;;;21.38;16.33;;;;;;;;;;5096878;28;20200;-64
2021/03/18 01:48:45;;;;;;;20.38;16.55;;;;;;;;;;5096655;28;20223;-63
2021/03/18 01:51:12;;;;;;;18.60;15.13;;;;;;;;;;5096927;28;20230;-63
2021/03/18 01:53:39;;;;;;;23.02;15.63;;;;;;;;;;5097298;28;20224;-62
2021/03/18 01:56:07;;;;;;;20.73;16.17;;;;;;;;;;5098229;28;20211;-62
2021/03/18 01:58:35;;;;;;;19.35;15.30;;;;;;;;;;5098207;28;20197;-62
2021/03/18 02:01:03;;;;;;;19.35;16.00;;;;;;;;;;5098773;28;20261;-62
2021/03/18 02:03:30;;;;;;;19.42;16.98;;;;;;;;;;5098490;28;20199;-62
2021/03/18 02:05:57;;;;;;;21.63;17.02;;;;;;;;;;5098210;28;20212;-63
2021/03/18 02:08:23;;;;;;;22.33;17.10;;;;;;;;;;5098750;28;20208;-62
2021/03/18 02:10:51;;;;;;;23.23;17.77;;;;;;;;;;5098936;28;20676;-62
2021/03/18 02:13:19;;;;;;;22.67;17.70;;;;;;;;;;5097544;28;20203;-62
2021/03/18 02:15:47;;;;;;;21.60;18.00;;;;;;;;;;5097552;28;20204;-62
2021/03/18 02:18:17;;;;;;;20.00;15.85;;;;;;;;;;5097674;28;20192;-63
2021/03/18 02:21:01;;;;;;;24.30;19.20;;;;;;;;;;5096552;28;20200;-62
2021/03/18 02:23:51;;;;;;;22.30;17.95;;;;;;;;;;5095424;28;20595;-62
2021/03/18 02:26:25;;;;;;;22.25;17.00;;;;;;;;;;5095815;28;20604;-62
2021/03/18 02:29:02;;;;;;;23.83;17.67;;;;;;;;;;5095617;28;20207;-62
2021/03/18 02:31:34;;;;;;;24.52;18.15;;;;;;;;;;5095390;28;20188;-61
2021/03/18 02:34:15;;;;;;;22.70;17.75;;;;;;;;;;5095809;28;20311;-63
2021/03/18 02:36:46;;;;;;;20.67;17.08;;;;;;;;;;5095468;28;20180;-63
2021/03/18 02:39:15;;;;;;;22.65;17.90;;;;;;;;;;5095752;28;20185;-62
2021/03/18 02:41:44;;;;;;;22.67;18.75;;;;;;;;;;5095580;28;20251;-63
2021/03/18 02:44:13;;;;;;;27.05;18.30;;;;;;;;;;5094791;28;20703;-62
2021/03/18 02:46:41;;;;;;;25.48;19.38;;;;;;;;;;5093880;28;20216;-62
2021/03/18 02:49:08;;;;;;;22.02;18.70;;;;;;;;;;5095304;28;20553;-63
2021/03/18 02:51:36;;;;;;;25.00;19.60;;;;;;;;;;5095426;28;20207;-62
2021/03/18 02:54:06;;;;;;;22.80;19.42;;;;;;;;;;5094983;28;20711;-62
2021/03/18 02:56:33;;;;;;;32.50;19.02;;;;;;;;;;5095137;28;20200;-62
2021/03/18 02:59:01;;;;;;;22.30;17.85;;;;;;;;;;5095050;28;20570;-62
2021/03/18 03:01:28;;;;;;;26.08;19.48;;;;;;;;;;5094990;28;20226;-61
2021/03/18 03:03:56;;;;;;;22.38;19.65;;;;;;;;;;5094874;28;20289;-63
2021/03/18 03:06:23;;;;;;;29.08;18.95;;;;;;;;;;5101200;28;20295;-62
2021/03/18 03:08:50;;;;;;;22.80;18.63;;;;;;;;;;5103629;28;20231;-63
2021/03/18 03:11:21;;;;;;;21.42;18.88;;;;;;;;;;5104512;28;20200;-62
2021/03/18 03:13:48;;;;;;;25.45;20.38;;;;;;;;;;5104465;28;20284;-62
2021/03/18 03:16:18;;;;;;;26.95;20.30;;;;;;;;;;5104749;28;20203;-62
2021/03/18 03:18:45;;;;;;;25.55;20.80;;;;;;;;;;5103162;28;20192;-62
2021/03/18 03:21:12;;;;;;;25.35;19.20;;;;;;;;;;5099928;28;20200;-63
2021/03/18 03:23:39;;;;;;;29.63;21.80;;;;;;;;;;5099148;28;20711;-62
2021/03/18 03:26:07;;;;;;;24.55;19.63;;;;;;;;;;5098348;28;20690;-62
2021/03/18 03:28:36;;;;;;;28.45;20.95;;;;;;;;;;5098058;28;20220;-63
2021/03/18 03:31:03;;;;;;;27.63;22.52;;;;;;;;;;5097860;28;20200;-62
2021/03/18 03:33:30;;;;;;;26.52;20.77;;;;;;;;;;5098785;28;20203;-63
2021/03/18 03:35:57;;;;;;;27.40;21.83;;;;;;;;;;5098729;28;20327;-63
2021/03/18 03:38:24;;;;;;;28.65;21.70;;;;;;;;;;5100751;28;20193;-63
2021/03/18 03:40:51;;;;;;;30.60;23.05;;;;;;;;;;5100187;28;20200;-63
2021/03/18 03:43:18;;;;;;;28.00;20.02;;;;;;;;;;5096138;28;20203;-63
2021/03/18 03:45:46;;;;;;;27.15;22.45;;;;;;;;;;5097526;28;20207;-62
2021/03/18 03:48:13;;;;;;;32.83;22.55;;;;;;;;;;5098011;28;20233;-61
2021/03/18 03:50:40;;;;;;;27.70;22.33;;;;;;;;;;5097349;28;20205;-62
2021/03/18 03:53:11;;;;;;;30.95;21.02;;;;;;;;;;5096003;28;20201;-63
2021/03/18 03:55:43;;;;;;;29.77;21.92;;;;;;;;;;5095588;28;20220;-63
2021/03/18 03:58:14;;;;;;;30.33;23.17;;;;;;;;;;5096388;28;20188;-63
2021/03/18 04:00:41;;;;;;;28.50;22.00;;;;;;;;;;5099513;28;20192;-62
2021/03/18 04:03:11;;;;;;;31.67;22.73;;;;;;;;;;5099428;28;20212;-62
2021/03/18 04:07:55;;;;;;;28.83;22.77;;;;;;;;;;5135284;27;20550;-61
2021/03/18 04:10:22;;;;;;;30.63;23.88;;;;;;;;;;5138417;28;20183;-62
2021/03/18 04:12:49;;;;;;;36.28;24.98;;;;;;;;;;5141817;27;20203;-62
2021/03/18 04:15:19;;;;;;;35.10;25.70;;;;;;;;;;5142547;27;20215;-62
2021/03/18 04:17:47;;;;;;;31.75;24.63;;;;;;;;;;5143990;27;20286;-63
2021/03/18 04:20:15;;;;;;;36.25;24.83;;;;;;;;;;5141294;27;20199;-62
2021/03/18 04:22:42;;;;;;;37.22;25.58;;;;;;;;;;5140549;27;20203;-62
2021/03/18 04:25:12;;;;;;;46.88;29.10;;;;;;;;;;5140424;27;20245;-62
2021/03/18 04:27:39;;;;;;;37.60;26.23;;;;;;;;;;5138997;27;20572;-62
2021/03/18 04:30:07;;;;;;;43.30;27.67;;;;;;;;;;5138912;27;20211;-62
2021/03/18 04:32:34;;;;;;;45.75;27.08;;;;;;;;;;5139168;27;20304;-62
2021/03/18 04:35:02;;;;;;;44.35;27.67;;;;;;;;;;5138169;27;20603;-62
2021/03/18 04:37:28;;;;;;;61.42;26.65;;;;;;;;;;5137968;27;20191;-62
2021/03/18 04:39:55;;;;;;;65.70;27.95;;;;;;;;;;5138402;27;20556;-62
2021/03/18 04:42:23;;;;;;;97.80;29.88;;;;;;;;;;5138111;27;20203;-63
2021/03/18 04:44:50;;;;;;;59.97;28.15;;;;;;;;;;5135310;27;20223;-63
2021/03/18 04:47:18;;;;;;;92.35;31.27;;;;;;;;;;5137818;27;20686;-62
2021/03/18 04:49:45;;;;;;;44.72;24.60;;;;;;;;;;5138209;27;20199;-62
2021/03/18 04:52:13;;;;;;;80.47;29.67;;;;;;;;;;5137110;27;20690;-62
2021/03/18 04:54:40;;;;;;;46.70;25.00;;;;;;;;;;5136490;27;20241;-62
2021/03/18 04:57:07;;;;;;;64.40;28.60;;;;;;;;;;5138040;27;20305;-62
2021/03/18 04:59:36;;;;;;;63.85;28.38;;;;;;;;;;5138076;27;20206;-62
2021/03/18 05:02:03;;;;;;;73.30;26.40;;;;;;;;;;5142067;27;20195;-62
2021/03/18 05:04:31;;;;;;;91.22;29.10;;;;;;;;;;5144238;27;20218;-62
2021/03/18 05:06:59;;;;;;;54.97;27.55;;;;;;;;;;5147641;27;20245;-62
2021/03/18 05:09:25;;;;;;;102.28;28.48;;;;;;;;;;5141816;27;20203;-62
2021/03/18 05:11:53;;;;;;;59.10;27.25;;;;;;;;;;5139496;27;20198;-62
2021/03/18 05:14:20;;;;;;;80.75;26.95;;;;;;;;;;5140547;27;20219;-62
2021/03/18 05:16:49;;;;;;;40.28;23.55;;;;;;;;;;5138552;27;20310;-62
2021/03/18 05:19:16;;;;;;;75.30;24.30;;;;;;;;;;5126308;27;20196;-62
2021/03/18 05:21:43;;;;;;;94.78;26.77;;;;;;;;;;5123676;28;20196;-62
2021/03/18 05:24:11;;;;;;;98.07;26.05;;;;;;;;;;5122359;28;20224;-61
2021/03/18 05:26:38;;;;;;;115.47;26.60;;;;;;;;;;5122661;28;20227;-62
2021/03/18 05:29:04;;;;;;;123.53;29.08;;;;;;;;;;5121676;28;20207;-63
2021/03/18 05:31:31;;;;;;;119.85;27.08;;;;;;;;;;5120008;28;20206;-62
2021/03/18 05:33:59;;;;;;;71.43;26.10;;;;;;;;;;5118360;28;20715;-62
2021/03/18 05:36:26;;;;;;;92.88;26.08;;;;;;;;;;5117709;28;20249;-63
2021/03/18 05:38:52;;;;;;;63.65;24.10;;;;;;;;;;5118589;28;20199;-62
2021/03/18 05:41:19;;;;;;;123.25;27.05;;;;;;;;;;5117192;28;20195;-62
2021/03/18 05:43:46;;;;;;;81.47;25.08;;;;;;;;;;5117063;28;20714;-62
2021/03/18 05:46:13;;;;;;;100.32;26.77;;;;;;;;;;5116620;28;20698;-62
2021/03/18 05:48:40;;;;;;;66.80;24.52;;;;;;;;;;5116995;28;20614;-62
2021/03/18 05:51:10;;;;;;;67.57;23.73;;;;;;;;;;5117506;28;20200;-61
2021/03/18 05:53:38;;;;;;;105.43;27.40;;;;;;;;;;5117318;28;20738;-62
2021/03/18 05:56:06;;;;;;;48.72;23.58;;;;;;;;;;5117076;28;20244;-62
2021/03/18 05:58:33;;;;;;;78.00;25.88;;;;;;;;;;5117363;28;20200;-62
2021/03/18 06:01:00;;;;;;;105.97;25.27;;;;;;;;;;5117429;28;20240;-62
2021/03/18 06:03:26;;;;;;;101.00;27.63;;;;;;;;;;5117099;28;20199;-62
2021/03/18 06:05:53;;;;;;;45.85;24.73;;;;;;;;;;5117999;28;20219;-62
2021/03/18 06:08:21;;;;;;;65.97;24.45;;;;;;;;;;5119685;27;20188;-61
2021/03/18 06:10:48;;;;;;;57.45;25.40;;;;;;;;;;5119365;28;20199;-62
2021/03/18 06:13:14;;;;;;;65.32;26.20;;;;;;;;;;5118706;28;20199;-62
2021/03/18 06:15:41;;;;;;;35.80;21.02;;;;;;;;;;5119204;27;20200;-63
2021/03/18 06:18:11;;;;;;;51.35;25.70;;;;;;;;;;5120834;28;20226;-62
2021/03/18 06:20:38;;;;;;;38.05;24.92;;;;;;;;;;5122085;28;20670;-61
2021/03/18 06:23:09;;;;;;;36.38;22.95;;;;;;;;;;5123833;28;20207;-62
2021/03/18 06:25:38;;;;;;;43.63;24.90;;;;;;;;;;5118727;28;20227;-62
2021/03/18 06:28:11;;;;;;;51.33;26.38;;;;;;;;;;5119556;28;20678;-63
2021/03/18 06:30:38;;;;;;;35.83;23.70;;;;;;;;;;5119526;28;20203;-62
2021/03/18 06:33:16;;;;;;;39.42;23.55;;;;;;;;;;5119643;28;20195;-63
2021/03/18 06:35:43;;;;;;;36.10;23.13;;;;;;;;;;5120824;28;20187;-62
2021/03/18 06:38:09;;;;;;;38.20;21.65;;;;;;;;;;5118885;28;20200;-63
2021/03/18 06:40:40;;;;;;;54.30;23.63;;;;;;;;;;5120169;28;20272;-62
2021/03/18 06:43:07;;;;;;;34.60;20.83;;;;;;;;;;5119311;28;20320;-64
2021/03/18 06:45:35;;;;;;;78.13;24.08;;;;;;;;;;5120293;28;20251;-63
2021/03/18 06:48:02;;;;;;;40.00;21.23;;;;;;;;;;5118779;28;20592;-62
2021/03/18 06:50:34;;;;;;;31.05;22.55;;;;;;;;;;5117908;28;20208;-63
2021/03/18 06:53:01;;;;;;;31.73;22.40;;;;;;;;;;5119685;28;20180;-63
2021/03/18 06:55:30;;;;;;;34.50;21.60;;;;;;;;;;5118820;28;20231;-63
2021/03/18 06:58:17;;;;;;;47.20;21.02;;;;;;;;;;5118263;28;20196;-62
2021/03/18 07:00:46;;;;;;;67.50;22.55;;;;;;;;;;5117325;28;20211;-63
2021/03/18 07:03:23;;;;;;;43.13;20.45;;;;;;;;;;5121601;28;20203;-63
2021/03/18 07:05:50;;;;;;;28.35;19.60;;;;;;;;;;5118599;28;20207;-63
2021/03/18 07:08:21;;;;;;;31.92;20.92;;;;;;;;;;5120736;28;20640;-62
2021/03/18 07:10:48;;;;;;;42.30;20.73;;;;;;;;;;5119557;28;20214;-62
2021/03/18 07:13:17;;;;;;;50.38;20.05;;;;;;;;;;5118670;28;20199;-63
2021/03/18 07:15:43;;;;;;;30.77;20.42;;;;;;;;;;5118101;28;20229;-64
2021/03/18 07:18:11;;;;;;;36.80;20.55;;;;;;;;;;5118667;28;20644;-61
2021/03/18 07:20:38;;;;;;;34.58;21.67;;;;;;;;;;5117504;28;20203;-63
2021/03/18 07:23:12;;;;;;;54.70;23.45;;;;;;;;;;5115689;28;20204;-63
2021/03/18 07:25:45;;;;;;;41.45;21.60;;;;;;;;;;5115640;28;20191;-62
2021/03/18 07:28:14;;;;;;;33.85;20.42;;;;;;;;;;5115480;28;20180;-62
2021/03/18 07:30:43;;;;;;;32.35;20.38;;;;;;;;;;5118748;28;20203;-62
2021/03/18 07:33:10;;;;;;;31.83;20.88;;;;;;;;;;5115544;28;20227;-63
2021/03/18 07:35:37;;;;;;;52.65;22.63;;;;;;;;;;5116175;27;20687;-63
2021/03/18 07:38:04;;;;;;;40.63;21.88;;;;;;;;;;5115152;28;20199;-62
2021/03/18 07:40:31;;;;;;;31.25;21.15;;;;;;;;;;5114561;28;20204;-65
2021/03/18 07:43:00;;;;;;;37.80;21.25;;;;;;;;;;5114659;28;20207;-62
2021/03/18 07:45:27;;;;;;;31.05;20.80;;;;;;;;;;5114213;28;20228;-63
2021/03/18 07:47:55;;;;;;;54.70;21.90;;;;;;;;;;5114145;28;20230;-64
2021/03/18 07:50:26;;;;;;;34.38;22.50;;;;;;;;;;5113985;28;20196;-62
2021/03/18 07:52:53;;;;;;;30.98;20.85;;;;;;;;;;5114279;28;20184;-64
2021/03/18 07:55:20;;;;;;;30.13;19.80;;;;;;;;;;5113830;28;20627;-63
2021/03/18 07:57:50;;;;;;;32.85;19.60;;;;;;;;;;5114358;28;20221;-65
2021/03/18 08:00:18;;;;;;;28.83;19.75;;;;;;;;;;5113813;28;20295;-64
2021/03/18 08:02:44;;;;;;;44.33;22.08;;;;;;;;;;5114853;28;20226;-63
2021/03/18 08:05:12;;;;;;;30.17;21.88;;;;;;;;;;5114625;28;20288;-63
2021/03/18 08:07:43;;;;;;;33.90;19.95;;;;;;;;;;5115026;28;20219;-62
2021/03/18 08:10:11;;;;;;;30.85;19.80;;;;;;;;;;5114897;28;20199;-62
2021/03/18 08:12:51;;;;;;;37.63;21.65;;;;;;;;;;5113892;28;20199;-62
2021/03/18 08:15:22;;;;;;;32.90;21.98;;;;;;;;;;5113806;28;20220;-62
2021/03/18 08:17:49;;;;;;;39.00;22.48;;;;;;;;;;5113656;28;20203;-62
2021/03/18 08:20:47;;;;;;;26.83;19.23;;;;;;;;;;5114842;28;20582;-63
2021/03/18 08:23:36;;;;;;;29.15;18.05;;;;;;;;;;5114360;28;20204;-62
2021/03/18 08:26:04;;;;;;;29.98;18.75;;;;;;;;;;5113911;28;20636;-63
2021/03/18 08:28:41;;;;;;;25.83;18.40;;;;;;;;;;5114011;28;20200;-62
2021/03/18 08:31:09;;;;;;;28.02;19.65;;;;;;;;;;5115646;28;20214;-61
2021/03/18 08:33:36;;;;;;;29.75;19.75;;;;;;;;;;5116238;28;20222;-62
2021/03/18 08:36:21;;;;;;;36.67;20.80;;;;;;;;;;5114416;28;20196;-62
2021/03/18 08:38:49;;;;;;;30.13;19.50;;;;;;;;;;5114462;28;20780;-64
2021/03/18 08:41:27;;;;;;;32.13;20.30;;;;;;;;;;5113724;28;20195;-64
2021/03/18 08:44:12;;;;;;;30.00;20.10;;;;;;;;;;5113524;28;20319;-63
2021/03/18 08:46:40;;;;;;;29.45;19.02;;;;;;;;;;5113879;28;20219;-62
2021/03/18 08:49:20;;;;;;;29.17;18.35;;;;;;;;;;5112723;28;20204;-63
2021/03/18 08:51:47;;;;;;;28.17;19.33;;;;;;;;;;5113750;28;20202;-63
2021/03/18 08:54:29;;;;;;;26.20;17.20;;;;;;;;;;5116502;28;20318;-64
2021/03/18 08:56:56;;;;;;;27.25;18.48;;;;;;;;;;5117466;28;20659;-64
2021/03/18 08:59:23;;;;;;;27.48;17.65;;;;;;;;;;5116811;28;20248;-61
2021/03/18 09:01:50;;;;;;;23.65;17.35;;;;;;;;;;5116407;28;20310;-64
2021/03/18 09:04:17;;;;;;;24.92;17.60;;;;;;;;;;5116507;28;20219;-63
2021/03/18 09:06:47;;;;;;;29.90;17.48;;;;;;;;;;5116691;28;20644;-63
2021/03/18 09:09:19;;;;;;;27.40;19.45;;;;;;;;;;5117084;28;20196;-62
2021/03/18 09:11:46;;;;;;;24.65;17.20;;;;;;;;;;5117328;28;20188;-64
2021/03/18 09:14:17;;;;;;;28.10;18.60;;;;;;;;;;5116623;28;20269;-63
2021/03/18 09:16:44;;;;;;;28.40;20.17;;;;;;;;;;5116732;28;20192;-64
2021/03/18 09:19:10;;;;;;;29.42;19.65;;;;;;;;;;5116136;28;20207;-64
2021/03/18 09:21:38;;;;;;;28.02;19.77;;;;;;;;;;5117609;28;20203;-64
2021/03/18 09:24:06;;;;;;;30.70;19.75;;;;;;;;;;5117552;28;20223;-62
2021/03/18 09:26:33;;;;;;;31.42;20.83;;;;;;;;;;5120117;28;20216;-64
2021/03/18 09:29:00;;;;;;;35.25;22.05;;;;;;;;;;5120122;28;20195;-63
2021/03/18 09:31:27;;;;;;;35.40;23.05;;;;;;;;;;5116792;28;20664;-64
2021/03/18 09:33:55;;;;;;;36.50;23.02;;;;;;;;;;5118223;28;20227;-64
2021/03/18 09:36:23;;;;;;;39.30;23.13;;;;;;;;;;5116943;28;20283;-63
2021/03/18 09:38:58;;;;;;;38.53;25.63;;;;;;;;;;5117267;28;20268;-64
2021/03/18 09:41:26;;;;;;;37.05;24.83;;;;;;;;;;5116438;28;20203;-65
2021/03/18 09:44:01;;;;;;;37.85;24.50;;;;;;;;;;5116824;28;20227;-64
2021/03/18 09:46:30;;;;;;;35.80;23.60;;;;;;;;;;5127407;28;20257;-63
2021/03/18 09:48:57;;;;;;;37.97;23.42;;;;;;;;;;5124388;28;20609;-63
2021/03/18 09:51:23;;;;;;;33.22;22.33;;;;;;;;;;5117847;27;20616;-62
2021/03/18 09:53:58;;;;;;;31.52;21.27;;;;;;;;;;5118797;28;20224;-64
2021/03/18 09:56:25;;;;;;;37.55;22.38;;;;;;;;;;5116301;28;20195;-64
2021/03/18 09:58:52;;;;;;;26.50;19.63;;;;;;;;;;5115938;28;20200;-62
2021/03/18 10:01:21;;;;;;;29.23;19.85;;;;;;;;;;5116642;28;20206;-64
2021/03/18 10:03:55;;;;;;;26.60;19.88;;;;;;;;;;5115878;28;20269;-63
2021/03/18 10:06:29;;;;;;;28.63;19.50;;;;;;;;;;5115813;28;20314;-62
2021/03/18 10:09:14;;;;;;;27.75;18.25;;;;;;;;;;5115423;27;20187;-64
2021/03/18 10:11:41;;;;;;;28.17;19.35;;;;;;;;;;5116296;28;20228;-64
2021/03/18 10:14:08;;;;;;;31.88;19.75;;;;;;;;;;5116736;28;20227;-63
2021/03/18 10:16:35;;;;;;;25.65;19.88;;;;;;;;;;5116097;28;20203;-62
2021/03/18 10:19:04;;;;;;;28.88;21.60;;;;;;;;;;5116339;28;20199;-62
2021/03/18 10:21:31;;;;;;;27.90;20.20;;;;;;;;;;5116152;28;20200;-63
2021/03/18 10:23:58;;;;;;;29.45;20.55;;;;;;;;;;5115888;28;20230;-63
2021/03/18 10:26:25;;;;;;;25.30;18.08;;;;;;;;;;5116542;28;20283;-63
2021/03/18 10:28:57;;;;;;;28.95;19.95;;;;;;;;;;5115830;28;20435;-63
2021/03/18 10:31:24;;;;;;;26.02;18.92;;;;;;;;;;5116129;28;20256;-63
2021/03/18 10:33:50;;;;;;;27.23;19.80;;;;;;;;;;5115339;28;20277;-63
2021/03/18 10:36:31;;;;;;;27.08;19.90;;;;;;;;;;5114928;28;20663;-63
2021/03/18 10:38:59;;;;;;;26.02;16.60;;;;;;;;;;5115332;27;20192;-63
2021/03/18 10:41:26;;;;;;;24.45;18.52;;;;;;;;;;5115185;28;20233;-62
2021/03/18 10:43:53;;;;;;;23.05;17.38;;;;;;;;;;5114707;28;20223;-63
2021/03/18 10:46:26;;;;;;;25.55;19.15;;;;;;;;;;5114787;28;20663;-65
2021/03/18 10:48:53;;;;;;;24.65;18.52;;;;;;;;;;5114358;28;20598;-65
2021/03/18 10:51:21;;;;;;;24.90;18.20;;;;;;;;;;5115000;28;20208;-63
2021/03/18 10:53:48;;;;;;;26.65;17.40;;;;;;;;;;5114641;28;20223;-63
2021/03/18 10:56:17;;;;;;;22.50;17.90;;;;;;;;;;5114843;28;20207;-62
2021/03/18 10:58:44;;;;;;;24.77;17.95;;;;;;;;;;5114712;28;20218;-63
2021/03/18 11:01:12;;;;;;;22.13;16.25;;;;;;;;;;5115424;28;20578;-62
2021/03/18 11:03:39;;;;;;;23.02;16.45;;;;;;;;;;5114985;28;20227;-63
2021/03/18 11:06:16;;;;;;;22.95;16.80;;;;;;;;;;5114873;28;20207;-64
2021/03/18 11:08:44;;;;;;;25.50;16.33;;;;;;;;;;5114824;28;20199;-62
2021/03/18 11:11:14;;;;;;;21.13;16.02;;;;;;;;;;5114583;28;20578;-62
2021/03/18 11:13:42;;;;;;;24.15;17.08;;;;;;;;;;5113962;28;20219;-64
2021/03/18 11:16:09;;;;;;;21.33;17.10;;;;;;;;;;5114668;28;20203;-62
2021/03/18 11:18:38;;;;;;;22.83;17.17;;;;;;;;;;5115731;28;20200;-63
2021/03/18 11:21:05;;;;;;;23.45;15.77;;;;;;;;;;5115268;28;20280;-62
2021/03/18 11:23:34;;;;;;;24.80;16.48;;;;;;;;;;5114515;28;20281;-62
2021/03/18 11:26:03;;;;;;;23.73;16.63;;;;;;;;;;5114681;28;20199;-63
2021/03/18 11:28:30;;;;;;;24.50;17.08;;;;;;;;;;5114320;28;20288;-63
2021/03/18 11:30:58;;;;;;;24.65;17.42;;;;;;;;;;5114416;28;20214;-64
2021/03/18 11:33:31;;;;;;;24.73;15.75;;;;;;;;;;5113698;28;20208;-63
2021/03/18 11:35:58;;;;;;;24.80;17.60;;;;;;;;;;5114399;28;20255;-62
2021/03/18 11:38:25;;;;;;;23.35;16.00;;;;;;;;;;5114013;28;20196;-63
2021/03/18 11:40:51;;;;;;;25.50;16.92;;;;;;;;;;5114689;28;20204;-63
2021/03/18 11:43:19;;;;;;;24.75;16.35;;;;;;;;;;5115413;28;20199;-63
2021/03/18 11:45:46;;;;;;;26.50;16.85;;;;;;;;;;5114493;28;20291;-63
2021/03/18 11:48:13;;;;;;;22.63;15.25;;;;;;;;;;5115422;28;20219;-63
2021/03/18 11:50:40;;;;;;;24.27;16.55;;;;;;;;;;5114278;28;20199;-63
2021/03/18 11:53:07;;;;;;;26.23;17.20;;;;;;;;;;5114453;28;20256;-63
2021/03/18 11:55:34;;;;;;;24.55;16.10;;;;;;;;;;5113624;28;20718;-63
2021/03/18 11:58:02;;;;;;;20.85;16.17;;;;;;;;;;5113917;28;20196;-64
2021/03/18 12:00:31;;;;;;;23.17;16.40;;;;;;;;;;5114448;28;20207;-63
2021/03/18 12:02:58;;;;;;;20.55;15.02;;;;;;;;;;5115581;28;20200;-64
2021/03/18 12:05:25;;;;;;;25.23;16.48;;;;;;;;;;5115005;28;20240;-64
2021/03/18 12:07:52;;;;;;;22.88;15.52;;;;;;;;;;5116445;28;20277;-63
2021/03/18 12:10:19;;;;;;;25.77;17.55;;;;;;;;;;5115003;28;20272;-63
2021/03/18 12:12:46;;;;;;;31.48;20.05;;;;;;;;;;5114799;28;20200;-63
2021/03/18 12:15:13;;;;;;;26.30;18.55;;;;;;;;;;5116254;28;20219;-65
2021/03/18 12:17:41;;;;;;;27.02;16.20;;;;;;;;;;5124537;28;20275;-63
2021/03/18 12:20:09;;;;;;;26.95;17.30;;;;;;;;;;5124452;28;20203;-64
2021/03/18 12:22:36;;;;;;;25.67;17.35;;;;;;;;;;5125716;28;20196;-63
2021/03/18 12:25:04;;;;;;;29.65;18.00;;;;;;;;;;5123711;28;20590;-62
2021/03/18 12:27:31;;;;;;;20.02;15.98;;;;;;;;;;5117193;28;20223;-63
2021/03/18 12:29:57;;;;;;;26.67;18.50;;;;;;;;;;5120625;28;20195;-64
2021/03/18 12:32:24;;;;;;;26.35;18.25;;;;;;;;;;5118777;28;20257;-62
2021/03/18 12:34:52;;;;;;;30.40;19.42;;;;;;;;;;5118801;28;20634;-63
2021/03/18 12:37:19;;;;;;;27.23;18.38;;;;;;;;;;5119927;28;20196;-63
2021/03/18 12:39:46;;;;;;;23.95;16.65;;;;;;;;;;5119739;28;20199;-63
2021/03/18 12:42:13;;;;;;;27.48;19.52;;;;;;;;;;5123996;28;20199;-63
2021/03/18 12:44:40;;;;;;;24.70;17.85;;;;;;;;;;5123805;28;20244;-65
2021/03/18 12:47:07;;;;;;;23.08;16.77;;;;;;;;;;5122865;28;20211;-64
2021/03/18 12:49:34;;;;;;;28.50;17.80;;;;;;;;;;5127697;28;20203;-64
2021/03/18 12:52:02;;;;;;;25.00;17.05;;;;;;;;;;5122401;28;20729;-63
2021/03/18 12:54:28;;;;;;;28.38;16.52;;;;;;;;;;5120400;28;20565;-63
2021/03/18 12:56:55;;;;;;;25.85;17.88;;;;;;;;;;5119767;28;20740;-63
2021/03/18 12:59:22;;;;;;;24.95;17.58;;;;;;;;;;5119133;28;20215;-62
2021/03/18 13:01:49;;;;;;;28.90;18.08;;;;;;;;;;5119908;28;20203;-64
2021/03/18 13:04:16;;;;;;;25.70;18.13;;;;;;;;;;5120726;27;20276;-64
2021/03/18 13:06:43;;;;;;;29.50;19.13;;;;;;;;;;5118781;28;20223;-64
2021/03/18 13:09:10;;;;;;;24.38;17.95;;;;;;;;;;5118968;28;20672;-63
2021/03/18 13:11:37;;;;;;;26.88;18.50;;;;;;;;;;5118811;28;20200;-63
2021/03/18 13:14:04;;;;;;;23.48;17.08;;;;;;;;;;5118135;28;20223;-63
2021/03/18 13:16:31;;;;;;;26.30;16.08;;;;;;;;;;5118209;28;20212;-62
2021/03/18 13:18:58;;;;;;;26.45;17.30;;;;;;;;;;5116847;28;20206;-63
2021/03/18 13:21:25;;;;;;;24.40;16.70;;;;;;;;;;5117083;28;20215;-65
2021/03/18 13:23:52;;;;;;;25.13;16.48;;;;;;;;;;5117033;28;20226;-64
2021/03/18 13:26:20;;;;;;;26.10;18.40;;;;;;;;;;5116368;28;20207;-64
2021/03/18 13:28:46;;;;;;;22.10;15.85;;;;;;;;;;5116824;28;20210;-62
2021/03/18 13:31:13;;;;;;;23.48;16.60;;;;;;;;;;5116659;27;20204;-64
2021/03/18 13:33:40;;;;;;;26.83;18.05;;;;;;;;;;5116272;28;20292;-63
2021/03/18 13:36:07;;;;;;;24.15;15.32;;;;;;;;;;5116061;28;20609;-64
2021/03/18 13:38:34;;;;;;;22.40;16.08;;;;;;;;;;5115855;28;20196;-63
2021/03/18 13:41:02;;;;;;;23.08;15.63;;;;;;;;;;5116672;28;20200;-63
2021/03/18 13:43:29;;;;;;;22.25;15.15;;;;;;;;;;5116233;28;20206;-63
2021/03/18 13:45:56;;;;;;;22.55;14.73;;;;;;;;;;5116203;28;20207;-64
2021/03/18 13:48:23;;;;;;;23.50;15.57;;;;;;;;;;5116305;28;20226;-63
2021/03/18 13:50:50;;;;;;;25.95;14.20;;;;;;;;;;5116594;28;20200;-63
2021/03/18 13:53:17;;;;;;;20.95;13.65;;;;;;;;;;5115894;28;20199;-63
2021/03/18 13:55:44;;;;;;;21.80;14.50;;;;;;;;;;5116003;28;20280;-64
2021/03/18 13:58:11;;;;;;;19.90;14.50;;;;;;;;;;5117307;28;20268;-64
2021/03/18 14:00:39;;;;;;;20.05;14.07;;;;;;;;;;5116650;28;20286;-63
2021/03/18 14:03:06;;;;;;;27.13;15.13;;;;;;;;;;5116790;28;20207;-64
2021/03/18 14:05:34;;;;;;;25.67;16.45;;;;;;;;;;5116971;28;20227;-64
2021/03/18 14:08:00;;;;;;;20.27;13.07;;;;;;;;;;5116733;27;20200;-63
2021/03/18 14:10:27;;;;;;;23.42;13.75;;;;;;;;;;5116699;28;20195;-63
2021/03/18 14:12:54;;;;;;;16.77;12.35;;;;;;;;;;5116861;28;20202;-63
2021/03/18 14:15:21;;;;;;;17.13;13.43;;;;;;;;;;5117177;28;20219;-64
2021/03/18 14:17:50;;;;;;;19.38;11.80;;;;;;;;;;5118464;28;20248;-63
2021/03/18 14:20:18;;;;;;;13.05;10.85;;;;;;;;;;5116497;28;20268;-63
2021/03/18 14:22:45;;;;;;;11.63;10.00;;;;;;;;;;5116414;28;20207;-63
2021/03/18 14:25:13;;;;;;;12.10;9.85;;;;;;;;;;5115506;28;20307;-63